KSSC/SSC METAR and TAF weather

Enter ICAO airport designator
Station Type Date Time Source
KSSC METAR 2019/12/08 16:56 UTC NOAA

KSSC 081656Z AUTO 01006KT 10SM CLR 11/00 A3038 RMK AO2 SLPNO T01070001 $


Station Type Date Time Source
KSSC Decoded METAR 2019/12/08 16:56 UTC NOAA

Shaw Air Force Base, SC, United States (KSSC) 33-58N 080-29W 73M
Dec 08, 2019 - 11:56 AM EST / 2019.12.08 1656 UTC
Wind: from the N (010 degrees) at 7 MPH (6 KT):0
Visibility: 10 mile(s):0
Sky conditions: clear
Temperature: 51.3 F (10.7 C)
Dew Point: 32.2 F (0.1 C)
Relative Humidity: 47%
Pressure (altimeter): 30.38 in. Hg (1028 hPa)
ob: KSSC 081656Z AUTO 01006KT 10SM CLR 11/00 A3038 RMK AO2 SLPNO T01070001
cycle: 17

Station Type Date Time Source
KSSC TAF 2019/12/07 16:45 UTC NOAA

TAF TAF COR KSSC 071730Z 0716/0822 04009KT 9999 FEW070 QNH3024INS TX15/0717Z TN01/0811Z LAST NO
AMDS AFT 0717 NEXT 0908

Example: see airport list